Time;durP1;ratioP1;P1;durP2;ratioP2;P2;SDS_P1;SDS_P2;PMS_P1;PMS_P2;Temp;Humidity;BMP_temperature;BMP_pressure;BME280_temperature;BME280_humidity;BME280_pressure;Samples;Min_cycle;Max_cycle;Signal;HPM_P1;HPM_P2
2021/11/21 00:01:27;;;;;;;32.28;24.60;;;5.50;99.90;;;;;;5041607;28;20032;-76
2021/11/21 00:03:52;;;;;;;32.58;25.52;;;5.40;99.90;;;;;;5045505;28;20028;-77
2021/11/21 00:06:20;;;;;;;32.58;25.05;;;5.40;99.90;;;;;;5041740;28;20364;-77
2021/11/21 00:08:46;;;;;;;32.10;25.63;;;5.50;99.90;;;;;;5043057;28;20024;-76
2021/11/21 00:11:12;;;;;;;33.13;25.15;;;5.50;99.90;;;;;;5042937;28;20025;-76
2021/11/21 00:13:37;;;;;;;30.90;24.77;;;5.50;99.90;;;;;;5040320;28;20036;-75
2021/11/21 00:16:06;;;;;;;29.63;23.27;;;5.40;99.90;;;;;;5039840;28;20024;-75
2021/11/21 00:18:31;;;;;;;31.65;24.40;;;5.50;99.90;;;;;;5044280;28;20105;-76
2021/11/21 00:20:57;;;;;;;30.45;24.15;;;5.40;99.90;;;;;;5037612;28;20117;-76
2021/11/21 00:23:23;;;;;;;31.25;24.85;;;5.30;99.90;;;;;;5046139;28;20032;-75
2021/11/21 00:25:49;;;;;;;30.67;24.70;;;5.20;99.90;;;;;;5040895;28;20132;-76
2021/11/21 00:28:15;;;;;;;29.30;24.35;;;5.20;99.90;;;;;;5043953;28;20445;-76
2021/11/21 00:30:40;;;;;;;28.40;23.80;;;5.30;99.90;;;;;;5042466;28;20029;-75
2021/11/21 00:33:06;;;;;;;30.90;25.02;;;5.30;99.90;;;;;;5042097;28;20029;-75
2021/11/21 00:35:32;;;;;;;28.52;23.30;;;5.30;99.90;;;;;;5040340;28;20108;-75
2021/11/21 00:37:59;;;;;;;30.25;24.00;;;5.40;99.90;;;;;;5043843;28;20455;-75
2021/11/21 00:40:25;;;;;;;30.55;25.10;;;5.40;99.90;;;;;;5042534;28;20024;-76
2021/11/21 00:42:50;;;;;;;32.75;24.90;;;5.30;99.90;;;;;;5043681;28;20064;-75
2021/11/21 00:45:16;;;;;;;29.23;24.20;;;5.40;99.90;;;;;;5041672;28;20049;-74
2021/11/21 00:47:42;;;;;;;28.85;24.30;;;5.40;99.90;;;;;;5047000;28;20053;-75
2021/11/21 00:50:09;;;;;;;30.85;24.52;;;5.40;99.90;;;;;;5040023;28;20025;-75
2021/11/21 00:52:37;;;;;;;30.00;24.17;;;5.30;99.90;;;;;;5046475;28;20079;-75
2021/11/21 00:55:20;;;;;;;29.30;24.00;;;5.30;99.90;;;;;;5038865;28;20092;-74
2021/11/21 00:57:45;;;;;;;29.15;24.30;;;5.30;99.90;;;;;;5034403;28;20083;-74
2021/11/21 01:00:14;;;;;;;31.52;25.88;;;5.30;99.90;;;;;;5048222;28;20422;-74
2021/11/21 01:02:41;;;;;;;28.08;23.17;;;5.30;99.90;;;;;;5043463;28;20032;-77
2021/11/21 01:05:10;;;;;;;31.50;24.67;;;5.30;99.90;;;;;;5037109;28;20032;-76
2021/11/21 01:07:38;;;;;;;27.83;23.02;;;5.30;99.90;;;;;;5036683;28;20032;-77
2021/11/21 01:10:09;;;;;;;31.23;24.65;;;5.40;99.90;;;;;;5044941;28;20060;-76
2021/11/21 01:12:35;;;;;;;30.55;24.63;;;5.40;99.90;;;;;;5039505;28;20017;-76
2021/11/21 01:15:01;;;;;;;28.65;24.42;;;5.40;99.90;;;;;;5042099;28;20032;-76
2021/11/21 01:17:27;;;;;;;29.88;23.98;;;5.40;99.90;;;;;;5041826;28;20021;-75
2021/11/21 01:19:59;;;;;;;30.90;25.27;;;5.40;99.90;;;;;;5041021;28;20025;-76
2021/11/21 01:22:25;;;;;;;27.70;23.80;;;5.40;99.90;;;;;;5038834;28;20099;-76
2021/11/21 01:24:51;;;;;;;29.27;24.08;;;5.40;99.90;;;;;;5041905;28;20028;-76
2021/11/21 01:27:16;;;;;;;32.40;25.13;;;5.40;99.90;;;;;;5040981;28;20036;-75
2021/11/21 01:29:42;;;;;;;28.33;23.90;;;5.40;99.90;;;;;;5043192;28;20025;-74
2021/11/21 01:32:07;;;;;;;29.73;25.30;;;5.50;99.90;;;;;;5039663;28;20112;-74
2021/11/21 01:34:33;;;;;;;32.63;25.92;;;5.40;99.90;;;;;;5031747;28;20036;-74
2021/11/21 01:36:58;;;;;;;29.55;25.50;;;5.20;99.90;;;;;;5038254;28;20032;-74
2021/11/21 01:39:24;;;;;;;31.58;25.35;;;5.20;99.90;;;;;;5038349;28;20030;-74
2021/11/21 01:41:49;;;;;;;30.88;24.23;;;5.40;99.90;;;;;;5040068;28;20387;-74
2021/11/21 01:44:16;;;;;;;30.55;25.52;;;5.40;99.90;;;;;;5048761;28;20032;-74
2021/11/21 01:46:42;;;;;;;29.88;24.83;;;5.50;99.90;;;;;;5041601;28;20043;-74
2021/11/21 01:49:09;;;;;;;29.45;25.60;;;5.40;99.90;;;;;;5047859;28;20092;-76
2021/11/21 01:51:35;;;;;;;32.80;26.75;;;5.40;99.90;;;;;;5046140;28;20447;-75
2021/11/21 01:54:01;;;;;;;32.65;27.80;;;5.40;99.90;;;;;;5050097;28;20076;-76
2021/11/21 01:56:27;;;;;;;31.92;26.15;;;5.30;99.90;;;;;;5042406;28;20439;-76
2021/11/21 01:58:56;;;;;;;31.85;25.65;;;5.30;99.90;;;;;;5046037;28;20082;-76
2021/11/21 02:01:23;;;;;;;33.20;26.27;;;5.40;99.90;;;;;;5045367;28;20049;-75
2021/11/21 02:03:49;;;;;;;32.45;26.48;;;5.30;99.90;;;;;;5047432;28;20029;-76
2021/11/21 02:06:15;;;;;;;30.83;25.48;;;5.30;99.90;;;;;;5046197;28;20025;-75
2021/11/21 02:08:41;;;;;;;31.88;26.30;;;5.30;99.90;;;;;;5054467;28;20035;-76
2021/11/21 02:11:06;;;;;;;32.55;25.95;;;5.40;99.90;;;;;;5035405;28;20025;-75
2021/11/21 02:13:32;;;;;;;30.30;25.80;;;5.40;99.90;;;;;;5049875;28;20026;-75
2021/11/21 02:15:58;;;;;;;31.35;26.10;;;5.40;99.90;;;;;;5042928;28;20082;-76
2021/11/21 02:18:24;;;;;;;31.98;26.58;;;5.40;99.90;;;;;;5046514;28;20032;-76
2021/11/21 02:20:54;;;;;;;34.78;28.05;;;5.20;99.90;;;;;;5043097;28;20031;-75
2021/11/21 02:23:23;;;;;;;32.80;27.25;;;5.10;99.90;;;;;;5048019;28;20029;-75
2021/11/21 02:25:50;;;;;;;31.83;26.30;;;5.10;99.90;;;;;;5047678;28;20029;-75
2021/11/21 02:28:16;;;;;;;31.58;27.27;;;5.20;99.90;;;;;;5044992;28;20368;-75
2021/11/21 02:30:42;;;;;;;32.50;27.70;;;5.20;99.90;;;;;;5045296;28;20028;-75
2021/11/21 02:33:14;;;;;;;33.33;27.63;;;5.20;99.90;;;;;;5046028;28;20029;-75
2021/11/21 02:35:42;;;;;;;30.60;27.20;;;5.10;99.90;;;;;;5036851;28;20025;-76
2021/11/21 02:38:10;;;;;;;31.80;27.38;;;5.00;99.90;;;;;;5043860;28;20028;-75
2021/11/21 02:40:35;;;;;;;33.10;28.42;;;5.00;99.90;;;;;;5029321;28;20029;-76
2021/11/21 02:43:01;;;;;;;32.03;27.52;;;5.10;99.90;;;;;;5034945;28;20035;-77
2021/11/21 02:45:27;;;;;;;34.00;28.27;;;5.10;99.90;;;;;;5035252;28;20099;-76
2021/11/21 02:47:52;;;;;;;31.73;27.88;;;5.10;99.90;;;;;;5020861;28;20104;-77
2021/11/21 02:50:21;;;;;;;31.38;27.38;;;5.10;99.90;;;;;;5027019;28;20518;-76
2021/11/21 02:52:47;;;;;;;29.75;25.90;;;5.20;99.90;;;;;;5027530;28;20025;-76
2021/11/21 02:55:13;;;;;;;31.60;27.92;;;5.20;99.90;;;;;;5021417;28;20661;-76
2021/11/21 02:57:40;;;;;;;31.08;26.60;;;5.20;99.90;;;;;;5020741;28;20130;-76
2021/11/21 03:00:08;;;;;;;31.67;27.27;;;5.10;99.90;;;;;;5026110;28;20030;-76
2021/11/21 03:02:37;;;;;;;31.60;28.02;;;5.10;99.90;;;;;;5026081;28;20029;-76
2021/11/21 03:05:03;;;;;;;29.65;26.42;;;5.10;99.90;;;;;;5022992;28;20032;-76
2021/11/21 03:07:28;;;;;;;31.75;27.95;;;5.00;99.90;;;;;;5020716;28;20392;-76
2021/11/21 03:09:54;;;;;;;31.25;27.23;;;5.00;99.90;;;;;;5024042;28;20033;-76
2021/11/21 03:12:21;;;;;;;32.42;27.58;;;5.00;99.90;;;;;;5025876;28;20026;-76
2021/11/21 03:14:48;;;;;;;33.30;28.48;;;5.00;99.90;;;;;;5021407;28;20496;-75
2021/11/21 03:17:14;;;;;;;31.55;27.48;;;5.00;99.90;;;;;;5031423;28;20029;-75
2021/11/21 03:19:40;;;;;;;32.08;28.63;;;5.00;99.90;;;;;;5029777;28;20033;-76
2021/11/21 03:22:06;;;;;;;31.00;27.63;;;5.00;99.90;;;;;;5033577;28;20101;-76
2021/11/21 03:24:31;;;;;;;29.30;26.20;;;5.00;99.90;;;;;;5033566;28;20022;-75
2021/11/21 03:26:57;;;;;;;31.75;27.90;;;5.10;99.90;;;;;;5033455;28;20030;-75
2021/11/21 03:29:22;;;;;;;32.38;28.88;;;5.10;99.90;;;;;;5033472;28;20036;-75
2021/11/21 03:31:48;;;;;;;30.50;27.17;;;5.10;99.90;;;;;;5033226;28;20020;-77
2021/11/21 03:34:14;;;;;;;32.40;27.45;;;5.10;99.90;;;;;;5033442;28;20108;-75
2021/11/21 03:36:39;;;;;;;30.60;27.30;;;5.10;99.90;;;;;;5018691;28;20060;-77
2021/11/21 03:39:06;;;;;;;33.95;28.13;;;5.10;99.90;;;;;;5024546;28;20057;-76
2021/11/21 03:41:35;;;;;;;30.55;27.08;;;5.00;99.90;;;;;;5026465;28;20237;-76
2021/11/21 03:44:01;;;;;;;31.45;28.02;;;5.00;99.90;;;;;;5022710;28;20080;-77
2021/11/21 03:46:26;;;;;;;31.35;27.20;;;4.80;99.90;;;;;;5019887;28;20025;-76
2021/11/21 03:48:52;;;;;;;29.70;26.50;;;4.80;99.90;;;;;;5023891;28;20034;-76
2021/11/21 03:51:18;;;;;;;30.65;27.40;;;4.80;99.90;;;;;;5026594;28;20033;-75
2021/11/21 03:53:43;;;;;;;30.25;26.85;;;4.70;99.90;;;;;;5020906;28;20029;-75
2021/11/21 03:56:09;;;;;;;32.38;28.08;;;4.70;99.90;;;;;;5029467;28;20033;-75
2021/11/21 03:58:34;;;;;;;31.08;27.42;;;4.70;99.90;;;;;;5021695;28;20038;-75
2021/11/21 04:01:00;;;;;;;32.53;27.88;;;4.70;99.90;;;;;;5018316;28;20061;-75
2021/11/21 04:03:26;;;;;;;31.02;27.27;;;4.80;99.90;;;;;;5024252;28;20087;-75
2021/11/21 04:05:51;;;;;;;31.55;27.85;;;4.70;99.90;;;;;;5024366;28;20065;-76
2021/11/21 04:08:17;;;;;;;31.77;28.17;;;4.70;99.90;;;;;;5021009;28;20052;-76
2021/11/21 04:10:43;;;;;;;31.33;27.85;;;4.70;99.90;;;;;;5019181;28;20089;-77
2021/11/21 04:13:09;;;;;;;31.52;28.08;;;4.80;99.90;;;;;;5024791;28;20029;-76
2021/11/21 04:15:36;;;;;;;33.28;28.33;;;4.80;99.90;;;;;;5026143;28;20099;-76
2021/11/21 04:18:02;;;;;;;32.92;28.35;;;4.70;99.90;;;;;;5020885;28;20025;-76
2021/11/21 04:20:28;;;;;;;33.80;28.35;;;4.80;99.90;;;;;;5032498;28;20049;-77
2021/11/21 04:22:53;;;;;;;32.72;27.80;;;4.80;99.90;;;;;;5032366;28;20558;-76
2021/11/21 04:25:19;;;;;;;32.05;26.45;;;4.80;99.90;;;;;;5019286;28;20038;-76
2021/11/21 04:27:45;;;;;;;32.63;27.33;;;4.80;99.90;;;;;;5023407;28;20033;-76
2021/11/21 04:30:13;;;;;;;31.63;28.15;;;4.60;99.90;;;;;;5024662;28;20033;-76
2021/11/21 04:32:40;;;;;;;32.50;28.05;;;4.60;99.90;;;;;;5021667;28;20045;-77
2021/11/21 04:35:08;;;;;;;30.65;27.20;;;4.60;99.90;;;;;;5018983;28;20026;-76
2021/11/21 04:37:35;;;;;;;33.95;28.48;;;4.60;99.90;;;;;;5032252;28;20053;-76
2021/11/21 04:40:01;;;;;;;32.67;28.27;;;4.60;99.90;;;;;;5018810;28;20072;-76
2021/11/21 04:42:26;;;;;;;33.90;28.67;;;4.60;99.90;;;;;;5022451;28;20037;-76
2021/11/21 04:44:52;;;;;;;31.75;27.90;;;4.50;99.90;;;;;;5027037;28;21618;-75
2021/11/21 04:47:17;;;;;;;33.60;28.40;;;4.50;99.90;;;;;;5022830;28;20453;-75
2021/11/21 04:49:43;;;;;;;33.28;27.83;;;4.50;99.90;;;;;;5024418;28;20039;-76
2021/11/21 04:52:09;;;;;;;34.25;29.40;;;4.50;99.90;;;;;;5021189;28;20383;-76
2021/11/21 04:54:35;;;;;;;33.10;28.95;;;4.50;99.90;;;;;;5018734;28;20022;-76
2021/11/21 04:57:02;;;;;;;36.38;30.55;;;4.50;99.90;;;;;;5030328;28;20419;-75
2021/11/21 04:59:27;;;;;;;34.95;30.45;;;4.40;99.90;;;;;;5017361;28;20112;-75
2021/11/21 05:01:53;;;;;;;39.95;30.67;;;4.50;99.90;;;;;;5022606;28;20543;-76
2021/11/21 05:04:19;;;;;;;37.08;30.15;;;4.50;99.90;;;;;;5026508;28;20025;-76
2021/11/21 05:06:44;;;;;;;34.20;29.25;;;4.50;99.90;;;;;;5021603;28;20388;-75
2021/11/21 05:09:10;;;;;;;36.47;29.80;;;4.50;99.90;;;;;;5024060;28;20022;-74
2021/11/21 05:11:36;;;;;;;35.30;29.73;;;4.50;99.90;;;;;;5019298;28;20143;-74
2021/11/21 05:14:04;;;;;;;39.40;31.15;;;4.40;99.90;;;;;;5030622;28;20057;-74
2021/11/21 05:16:30;;;;;;;35.83;30.52;;;4.40;99.90;;;;;;5020901;28;20033;-74
2021/11/21 05:18:56;;;;;;;38.28;32.72;;;4.40;99.90;;;;;;5036527;28;20028;-75
2021/11/21 05:21:21;;;;;;;37.67;30.05;;;4.40;99.90;;;;;;5040287;28;20032;-74
2021/11/21 05:23:47;;;;;;;37.63;31.08;;;4.50;99.90;;;;;;5028656;28;20026;-76
2021/11/21 05:26:13;;;;;;;35.42;29.83;;;4.30;99.90;;;;;;5020282;28;20026;-76
2021/11/21 05:28:39;;;;;;;36.00;29.95;;;4.30;99.90;;;;;;5017275;28;20099;-75
2021/11/21 05:31:04;;;;;;;37.38;31.08;;;4.40;99.90;;;;;;5030245;28;20032;-75
2021/11/21 05:33:30;;;;;;;36.28;29.83;;;4.40;99.90;;;;;;5018169;28;20040;-75
2021/11/21 05:35:55;;;;;;;37.72;30.05;;;4.30;99.90;;;;;;5020922;28;20029;-75
2021/11/21 05:38:21;;;;;;;37.47;31.00;;;4.40;99.90;;;;;;5025202;28;20025;-74
2021/11/21 05:40:47;;;;;;;91.82;70.25;;;4.40;99.90;;;;;;5020581;28;20480;-74
2021/11/21 05:43:12;;;;;;;143.27;100.45;;;4.40;99.90;;;;;;5018066;28;20034;-74
2021/11/21 05:45:38;;;;;;;160.05;108.93;;;4.40;99.90;;;;;;5022780;28;20463;-74
2021/11/21 05:48:04;;;;;;;49.58;39.85;;;4.50;99.90;;;;;;5026892;28;20022;-74
2021/11/21 05:50:30;;;;;;;41.53;31.58;;;4.60;99.90;;;;;;5021241;28;20026;-74
2021/11/21 05:52:55;;;;;;;39.33;30.80;;;4.60;99.90;;;;;;5024647;28;20458;-74
2021/11/21 05:55:21;;;;;;;38.63;32.35;;;4.60;99.90;;;;;;5020533;28;20040;-75
2021/11/21 05:57:48;;;;;;;40.10;30.25;;;4.60;99.90;;;;;;5017714;28;20030;-74
2021/11/21 06:00:17;;;;;;;38.13;30.10;;;4.70;99.90;;;;;;5022576;28;20036;-74
2021/11/21 06:02:43;;;;;;;36.95;29.38;;;4.70;99.90;;;;;;5024693;28;20026;-74
2021/11/21 06:05:09;;;;;;;38.83;29.48;;;4.60;99.90;;;;;;5020802;28;20148;-75
2021/11/21 06:07:35;;;;;;;39.67;30.83;;;4.70;99.90;;;;;;5017807;28;20409;-75
2021/11/21 06:10:02;;;;;;;46.67;36.17;;;4.70;99.90;;;;;;5027923;28;20084;-75
2021/11/21 06:12:28;;;;;;;50.58;37.45;;;4.70;99.90;;;;;;5031045;28;20029;-75
2021/11/21 06:14:54;;;;;;;39.05;30.67;;;4.70;99.90;;;;;;5020525;28;20036;-75
2021/11/21 06:17:20;;;;;;;40.78;33.67;;;4.70;99.90;;;;;;5024431;28;20026;-75
2021/11/21 06:19:46;;;;;;;39.90;32.25;;;4.70;99.90;;;;;;5017946;28;20030;-75
2021/11/21 06:22:12;;;;;;;39.20;31.83;;;4.60;99.90;;;;;;5027517;28;20048;-76
2021/11/21 06:24:38;;;;;;;40.00;31.17;;;4.70;99.90;;;;;;5020295;28;20076;-77
2021/11/21 06:27:04;;;;;;;41.88;34.85;;;4.80;99.90;;;;;;5023082;28;20026;-76
2021/11/21 06:29:29;;;;;;;43.00;33.78;;;4.70;99.90;;;;;;5024820;28;20026;-76
2021/11/21 06:31:55;;;;;;;43.90;32.17;;;4.60;99.90;;;;;;5030285;28;20025;-76
2021/11/21 06:34:21;;;;;;;42.97;31.33;;;4.60;99.90;;;;;;5022577;28;20159;-76
2021/11/21 06:36:46;;;;;;;42.42;31.42;;;4.70;99.90;;;;;;5018823;28;20366;-76
2021/11/21 06:39:12;;;;;;;42.97;32.30;;;4.80;99.90;;;;;;5024059;28;20045;-76
2021/11/21 06:41:38;;;;;;;39.88;31.48;;;4.60;99.90;;;;;;5021051;28;20027;-75
2021/11/21 06:44:05;;;;;;;38.35;29.35;;;4.60;99.90;;;;;;5024970;28;20069;-76
2021/11/21 06:46:31;;;;;;;39.72;30.55;;;4.60;99.90;;;;;;5027929;28;20518;-76
2021/11/21 06:48:57;;;;;;;41.85;30.98;;;4.70;99.90;;;;;;5014892;28;20029;-75
2021/11/21 06:51:22;;;;;;;44.05;32.17;;;4.70;99.90;;;;;;5016041;28;20392;-76
2021/11/21 06:53:49;;;;;;;40.97;31.00;;;4.70;99.90;;;;;;5025424;28;20053;-76
2021/11/21 06:56:16;;;;;;;39.88;30.30;;;4.80;99.90;;;;;;5013978;28;20022;-76
2021/11/21 06:58:41;;;;;;;42.35;30.25;;;4.80;99.90;;;;;;5024044;28;20037;-76
2021/11/21 07:01:07;;;;;;;46.42;34.42;;;4.80;99.90;;;;;;5018289;28;20037;-76
2021/11/21 07:03:32;;;;;;;42.47;32.55;;;4.70;99.90;;;;;;5014505;28;20197;-76
2021/11/21 07:05:58;;;;;;;43.22;31.95;;;4.70;99.90;;;;;;5016747;28;20026;-75
2021/11/21 07:08:24;;;;;;;47.08;32.17;;;4.70;99.90;;;;;;5034138;28;20025;-74
2021/11/21 07:10:49;;;;;;;51.47;38.42;;;4.80;99.90;;;;;;5020570;28;20761;-75
2021/11/21 07:13:15;;;;;;;48.08;32.88;;;4.70;99.90;;;;;;5023638;28;20026;-75
2021/11/21 07:15:40;;;;;;;40.22;30.02;;;4.50;99.90;;;;;;5027189;28;20105;-75
2021/11/21 07:18:06;;;;;;;45.85;31.08;;;4.50;99.90;;;;;;5022110;28;20032;-75
2021/11/21 07:20:32;;;;;;;51.25;33.22;;;4.50;99.90;;;;;;5037211;28;20033;-74
2021/11/21 07:22:57;;;;;;;44.85;31.63;;;4.60;99.90;;;;;;5033659;28;20072;-75
2021/11/21 07:25:24;;;;;;;46.30;34.10;;;4.60;99.90;;;;;;5020181;28;20037;-75
2021/11/21 07:27:51;;;;;;;50.97;35.58;;;4.80;99.90;;;;;;5024220;28;20106;-75
2021/11/21 07:30:19;;;;;;;49.00;33.08;;;4.70;99.90;;;;;;5025720;28;20017;-75
2021/11/21 07:32:46;;;;;;;52.88;34.25;;;4.70;99.90;;;;;;5013575;28;20014;-75
2021/11/21 07:35:16;;;;;;;64.80;37.67;;;4.70;99.90;;;;;;5017058;28;20045;-75
2021/11/21 07:37:41;;;;;;;55.97;36.38;;;4.70;99.90;;;;;;5033358;28;20075;-75
2021/11/21 07:40:10;;;;;;;59.25;38.10;;;4.70;99.90;;;;;;5018438;28;20029;-74
2021/11/21 07:42:36;;;;;;;56.78;36.53;;;4.70;99.90;;;;;;5021725;28;20034;-75
2021/11/21 07:45:04;;;;;;;59.45;36.38;;;4.80;99.90;;;;;;5028898;28;20054;-75
2021/11/21 07:47:30;;;;;;;60.22;36.67;;;4.70;99.90;;;;;;5024562;28;20084;-75
2021/11/21 07:49:57;;;;;;;61.97;38.95;;;4.70;99.90;;;;;;5028083;28;20057;-74
2021/11/21 07:52:25;;;;;;;56.03;36.47;;;4.60;99.90;;;;;;5022745;28;20120;-74
2021/11/21 07:54:51;;;;;;;59.42;35.25;;;4.70;99.90;;;;;;5020036;28;20028;-74
2021/11/21 07:57:16;;;;;;;58.42;36.83;;;4.70;99.90;;;;;;5022260;28;20034;-74
2021/11/21 07:59:42;;;;;;;58.95;36.70;;;4.80;99.90;;;;;;5027549;28;20036;-74
2021/11/21 08:02:08;;;;;;;64.05;37.40;;;4.60;99.90;;;;;;5024699;28;20507;-74
2021/11/21 08:04:33;;;;;;;56.80;35.20;;;4.50;99.90;;;;;;5020128;28;20030;-74
2021/11/21 08:06:59;;;;;;;58.72;37.17;;;4.60;99.90;;;;;;5022539;28;20080;-74
2021/11/21 08:09:24;;;;;;;60.00;37.13;;;4.70;99.90;;;;;;5026337;28;20022;-75
2021/11/21 08:11:50;;;;;;;64.32;40.28;;;4.60;99.90;;;;;;5023529;28;20022;-75
2021/11/21 08:14:15;;;;;;;65.53;38.63;;;4.60;99.90;;;;;;5018041;28;20148;-75
2021/11/21 08:16:42;;;;;;;75.85;43.42;;;4.60;99.90;;;;;;5032681;28;20075;-74
2021/11/21 08:19:10;;;;;;;78.05;45.63;;;4.60;99.90;;;;;;5028039;28;20027;-75
2021/11/21 08:21:35;;;;;;;62.42;41.78;;;4.50;99.90;;;;;;5032499;28;20051;-74
2021/11/21 08:24:01;;;;;;;70.60;41.92;;;4.70;99.90;;;;;;5027398;28;20488;-74
2021/11/21 08:26:27;;;;;;;71.40;41.13;;;4.70;99.90;;;;;;5024312;28;20391;-74
2021/11/21 08:28:52;;;;;;;54.97;37.53;;;4.80;99.90;;;;;;5015449;28;20484;-74
2021/11/21 08:31:18;;;;;;;68.43;39.42;;;4.80;99.90;;;;;;5012498;28;20389;-75
2021/11/21 08:33:44;;;;;;;75.93;40.70;;;4.80;99.90;;;;;;5029399;28;20025;-75
2021/11/21 08:36:09;;;;;;;65.45;37.33;;;4.60;99.90;;;;;;5019575;28;20026;-74
2021/11/21 08:38:35;;;;;;;59.17;36.50;;;4.70;99.90;;;;;;5024218;28;20033;-75
2021/11/21 08:41:02;;;;;;;64.32;37.08;;;4.60;99.90;;;;;;5022284;28;20026;-75
2021/11/21 08:43:28;;;;;;;60.83;35.67;;;4.60;99.90;;;;;;5018912;28;20387;-75
2021/11/21 08:45:53;;;;;;;68.88;38.35;;;4.60;99.90;;;;;;5021115;28;20025;-75
2021/11/21 08:48:19;;;;;;;62.67;38.28;;;4.70;99.90;;;;;;5024060;28;20037;-75
2021/11/21 08:50:45;;;;;;;65.55;39.85;;;4.60;99.90;;;;;;5023083;28;20029;-74
2021/11/21 08:53:10;;;;;;;71.90;40.03;;;4.60;99.90;;;;;;5019596;28;20511;-75
2021/11/21 08:55:36;;;;;;;70.93;41.28;;;4.60;99.90;;;;;;5032241;28;20071;-75
2021/11/21 08:58:04;;;;;;;64.20;39.55;;;4.60;99.90;;;;;;5018441;28;20496;-74
2021/11/21 09:00:30;;;;;;;81.53;53.63;;;4.70;99.90;;;;;;5021223;28;20053;-74
2021/11/21 09:02:55;;;;;;;65.13;41.75;;;4.80;99.90;;;;;;5025397;28;20369;-74
2021/11/21 09:05:23;;;;;;;61.90;39.60;;;4.80;99.90;;;;;;5022759;28;20432;-74
2021/11/21 09:07:49;;;;;;;78.47;46.83;;;4.70;99.90;;;;;;5018232;28;20431;-74
2021/11/21 09:10:18;;;;;;;76.07;45.80;;;4.70;99.90;;;;;;5020982;28;20030;-75
2021/11/21 09:12:45;;;;;;;74.05;46.00;;;4.80;99.90;;;;;;5025044;28;20136;-76
2021/11/21 09:15:16;;;;;;;67.28;41.88;;;4.70;99.90;;;;;;5022575;28;20408;-74
2021/11/21 09:17:47;;;;;;;68.47;41.97;;;4.70;99.90;;;;;;5018502;28;20484;-75
2021/11/21 09:20:13;;;;;;;70.63;42.03;;;4.70;99.90;;;;;;5030446;28;20033;-74
2021/11/21 09:22:39;;;;;;;67.70;41.40;;;4.70;99.90;;;;;;5029856;28;20071;-75
2021/11/21 09:25:06;;;;;;;70.75;41.53;;;4.80;99.90;;;;;;5028846;28;20021;-75
2021/11/21 09:27:32;;;;;;;86.22;46.15;;;4.80;99.90;;;;;;5039560;28;20029;-75
2021/11/21 09:29:58;;;;;;;75.53;43.50;;;4.90;99.90;;;;;;5024622;28;20026;-74
2021/11/21 09:32:23;;;;;;;65.28;40.22;;;4.80;99.90;;;;;;5031412;28;20391;-75
2021/11/21 09:34:49;;;;;;;74.30;44.15;;;4.80;99.90;;;;;;5017926;28;20034;-75
2021/11/21 09:37:15;;;;;;;71.70;42.17;;;4.90;99.90;;;;;;5011810;28;20100;-75
2021/11/21 09:39:41;;;;;;;65.53;40.65;;;5.00;99.90;;;;;;5023859;28;20044;-75
2021/11/21 09:42:07;;;;;;;73.85;43.60;;;5.10;99.90;;;;;;5018302;28;20030;-75
2021/11/21 09:44:33;;;;;;;65.80;40.28;;;5.10;99.90;;;;;;5018286;28;20054;-74
2021/11/21 09:46:59;;;;;;;73.72;41.88;;;5.30;99.90;;;;;;5031475;28;20041;-75
2021/11/21 09:49:27;;;;;;;64.32;39.03;;;5.30;99.90;;;;;;5018471;28;20022;-74
2021/11/21 09:51:54;;;;;;;67.00;40.90;;;5.20;99.90;;;;;;5017901;28;20030;-75
2021/11/21 09:54:23;;;;;;;66.50;37.63;;;5.30;99.90;;;;;;5030166;28;20032;-75
2021/11/21 09:56:49;;;;;;;69.57;40.78;;;5.30;99.90;;;;;;5030008;28;20040;-75
2021/11/21 09:59:15;;;;;;;62.47;39.28;;;5.30;99.90;;;;;;5016893;28;20029;-75
2021/11/21 10:01:41;;;;;;;66.60;39.33;;;5.30;99.90;;;;;;5024201;28;20522;-75
2021/11/21 10:04:09;;;;;;;67.05;40.88;;;5.40;99.90;;;;;;5026389;28;20030;-75
2021/11/21 10:06:37;;;;;;;66.30;38.72;;;5.30;99.90;;;;;;5022556;28;20101;-74
2021/11/21 10:09:08;;;;;;;60.35;35.45;;;5.30;99.90;;;;;;5021790;28;20526;-75
2021/11/21 10:12:04;;;;;;;56.35;34.75;;;5.10;99.90;;;;;;5027645;28;20030;-75
2021/11/21 10:14:32;;;;;;;63.17;38.10;;;5.20;99.90;;;;;;5029572;28;20034;-75
2021/11/21 10:16:58;;;;;;;55.40;33.33;;;5.20;99.90;;;;;;5026465;28;20476;-75
2021/11/21 10:19:23;;;;;;;55.40;32.53;;;5.30;99.90;;;;;;5034823;28;20043;-75
2021/11/21 10:21:50;;;;;;;50.00;31.80;;;5.10;99.90;;;;;;5033575;28;20468;-75
2021/11/21 10:24:24;;;;;;;45.15;29.27;;;5.20;99.90;;;;;;5027804;28;20037;-75
2021/11/21 10:27:16;;;;;;;43.20;27.17;;;5.30;99.90;;;;;;5026998;28;20025;-75
2021/11/21 10:29:48;;;;;;;44.45;28.25;;;5.30;99.90;;;;;;5026278;28;20018;-74
2021/11/21 10:32:18;;;;;;;43.53;28.33;;;5.10;99.90;;;;;;5019743;28;20475;-75
2021/11/21 10:34:56;;;;;;;39.72;25.67;;;5.10;99.90;;;;;;5022835;28;20033;-75
2021/11/21 10:37:48;;;;;;;40.00;26.13;;;5.10;99.90;;;;;;5022398;28;20025;-74
2021/11/21 10:40:18;;;;;;;39.42;25.60;;;5.10;99.90;;;;;;5021311;28;20045;-75
2021/11/21 10:42:46;;;;;;;39.85;27.08;;;5.10;99.90;;;;;;5022263;28;20063;-75
2021/11/21 10:45:19;;;;;;;37.97;24.50;;;5.10;99.90;;;;;;5028388;28;20030;-75
2021/11/21 10:47:50;;;;;;;37.20;25.63;;;5.20;99.90;;;;;;5028136;28;20061;-75
2021/11/21 10:50:50;;;;;;;34.70;22.85;;;5.30;99.90;;;;;;5020090;28;20022;-75
2021/11/21 10:53:15;;;;;;;32.35;23.20;;;5.50;99.90;;;;;;5020261;28;20380;-75
2021/11/21 10:55:41;;;;;;;34.45;23.20;;;5.50;99.90;;;;;;5023001;28;20029;-75
2021/11/21 10:58:10;;;;;;;33.22;23.27;;;5.60;99.90;;;;;;5028625;28;20038;-75
2021/11/21 11:00:36;;;;;;;34.50;22.65;;;5.60;99.90;;;;;;5025625;28;20059;-75
2021/11/21 11:03:01;;;;;;;33.13;22.52;;;5.60;99.90;;;;;;5021028;28;20053;-75
2021/11/21 11:05:27;;;;;;;36.15;24.25;;;5.60;99.90;;;;;;5034265;28;20040;-75
2021/11/21 11:08:02;;;;;;;34.75;23.45;;;5.60;99.90;;;;;;5019708;28;20026;-75
2021/11/21 11:10:30;;;;;;;30.98;21.52;;;5.60;99.90;;;;;;5022370;28;20072;-75
2021/11/21 11:13:03;;;;;;;30.75;21.77;;;5.70;99.90;;;;;;5027390;28;20014;-75
2021/11/21 11:15:30;;;;;;;31.13;21.88;;;5.70;99.90;;;;;;5026619;28;20496;-75
2021/11/21 11:17:56;;;;;;;33.63;23.00;;;5.70;99.90;;;;;;5032593;28;20068;-75
2021/11/21 11:20:24;;;;;;;29.80;21.42;;;5.70;99.90;;;;;;5033948;28;20033;-75
2021/11/21 11:22:50;;;;;;;30.85;21.67;;;5.60;99.90;;;;;;5033603;28;20159;-75
2021/11/21 11:25:29;;;;;;;34.53;22.20;;;5.50;99.90;;;;;;5032100;28;20100;-75
2021/11/21 11:28:17;;;;;;;32.92;22.35;;;5.30;99.90;;;;;;5024118;28;20017;-75
2021/11/21 11:30:43;;;;;;;30.17;21.85;;;5.40;99.90;;;;;;5027797;28;20022;-75
2021/11/21 11:33:23;;;;;;;29.45;20.88;;;5.50;99.90;;;;;;5026907;28;20028;-75
2021/11/21 11:35:51;;;;;;;32.40;23.40;;;5.60;99.90;;;;;;5033264;28;20034;-74
2021/11/21 11:38:24;;;;;;;31.40;21.20;;;5.50;99.90;;;;;;5031911;28;20022;-75
2021/11/21 11:40:58;;;;;;;31.50;22.50;;;5.70;99.90;;;;;;5021608;28;20057;-75
2021/11/21 11:43:31;;;;;;;31.77;22.58;;;5.60;99.90;;;;;;5018954;28;20056;-75
2021/11/21 11:46:23;;;;;;;28.83;21.83;;;5.70;99.90;;;;;;5033604;28;20060;-75
2021/11/21 11:48:54;;;;;;;31.33;22.15;;;5.70;99.90;;;;;;5023636;28;20072;-75
2021/11/21 11:51:29;;;;;;;29.40;20.95;;;5.50;99.90;;;;;;5018742;28;20057;-74
2021/11/21 11:54:03;;;;;;;29.73;22.15;;;5.40;99.90;;;;;;5033147;28;20080;-75
2021/11/21 11:56:40;;;;;;;29.50;21.80;;;5.50;99.90;;;;;;5018128;28;20028;-75
2021/11/21 11:59:21;;;;;;;29.50;21.95;;;5.40;99.90;;;;;;5020479;28;20585;-75
2021/11/21 12:01:51;;;;;;;30.15;22.10;;;5.50;99.90;;;;;;5031974;28;20033;-75
2021/11/21 12:04:16;;;;;;;31.15;22.73;;;5.50;99.90;;;;;;5019854;28;20026;-75
2021/11/21 12:06:51;;;;;;;29.98;22.45;;;5.50;99.90;;;;;;5023444;28;20014;-74
2021/11/21 12:09:20;;;;;;;36.05;23.75;;;5.50;99.90;;;;;;5025210;28;20079;-75
2021/11/21 12:11:57;;;;;;;31.70;22.33;;;5.40;99.90;;;;;;5023071;28;20021;-74
2021/11/21 12:14:38;;;;;;;32.40;22.92;;;5.20;99.90;;;;;;5026933;28;20030;-74
2021/11/21 12:17:11;;;;;;;33.70;23.95;;;5.20;99.90;;;;;;5026452;28;20391;-75
2021/11/21 12:19:48;;;;;;;28.88;21.70;;;5.30;99.90;;;;;;5020795;28;20481;-75
2021/11/21 12:22:30;;;;;;;31.83;22.52;;;5.40;99.90;;;;;;5028964;28;20033;-75
2021/11/21 12:25:19;;;;;;;34.15;21.88;;;5.30;99.90;;;;;;5020097;28;20022;-75
2021/11/21 12:27:57;;;;;;;31.77;22.63;;;5.20;99.90;;;;;;5020756;28;20022;-75
2021/11/21 12:30:31;;;;;;;33.72;22.88;;;5.30;99.90;;;;;;5027424;28;20036;-75
2021/11/21 12:33:01;;;;;;;34.60;23.48;;;5.10;99.90;;;;;;5024439;28;20079;-75
2021/11/21 12:35:40;;;;;;;31.17;22.27;;;5.20;99.90;;;;;;5020294;28;20045;-74
2021/11/21 12:38:32;;;;;;;32.72;22.48;;;5.20;99.90;;;;;;5025633;28;20080;-75